createdAt,value
2019-02-24T00:01:49.776Z,24.37
2019-02-24T00:04:16.918Z,21.67
2019-02-24T00:06:44.116Z,23.70
2019-02-24T00:09:12.162Z,26.30
2019-02-24T00:11:39.329Z,21.67
2019-02-24T00:14:06.509Z,28.23
2019-02-24T00:16:33.759Z,25.87
2019-02-24T00:19:01.059Z,22.77
2019-02-24T00:21:28.712Z,22.23
2019-02-24T00:23:55.961Z,24.57
2019-02-24T00:26:23.439Z,22.97
2019-02-24T00:28:50.601Z,25.17
2019-02-24T00:31:17.852Z,19.63
2019-02-24T00:33:45.153Z,30.67
2019-02-24T00:36:12.406Z,28.80
2019-02-24T00:38:39.658Z,21.27
2019-02-24T00:41:06.824Z,22.20
2019-02-24T00:43:33.887Z,24.80
2019-02-24T00:46:01.158Z,32.60
2019-02-24T00:48:28.433Z,28.37
2019-02-24T00:50:55.667Z,23.50
2019-02-24T00:53:22.836Z,23.37
2019-02-24T00:55:50.124Z,26.10
2019-02-24T00:58:17.417Z,26.67
2019-02-24T01:00:44.718Z,24.30
2019-02-24T01:03:11.964Z,30.77
2019-02-24T01:05:39.220Z,27.23
2019-02-24T01:08:06.529Z,24.77
2019-02-24T01:10:33.799Z,26.37
2019-02-24T01:13:01.047Z,25.60
2019-02-24T01:15:28.357Z,29.93
2019-02-24T01:17:55.607Z,25.67
2019-02-24T01:20:22.759Z,25.20
2019-02-24T01:22:50.034Z,26.73
2019-02-24T01:25:17.337Z,27.03
2019-02-24T01:27:44.484Z,25.00
2019-02-24T01:30:11.740Z,25.07
2019-02-24T01:32:39.010Z,27.53
2019-02-24T01:35:07.084Z,25.87
2019-02-24T01:37:34.324Z,20.17
2019-02-24T01:40:01.794Z,22.07
2019-02-24T01:42:29.071Z,29.37
2019-02-24T01:44:56.316Z,19.67
2019-02-24T01:47:23.596Z,21.50
2019-02-24T01:49:50.774Z,21.93
2019-02-24T01:52:18.086Z,21.97
2019-02-24T01:54:45.304Z,23.40
2019-02-24T01:57:12.552Z,28.20
2019-02-24T01:59:39.743Z,23.80
2019-02-24T02:02:06.988Z,28.13
2019-02-24T02:04:34.312Z,20.87
2019-02-24T02:07:01.557Z,25.07
2019-02-24T02:09:28.609Z,29.60
2019-02-24T02:11:55.780Z,31.33
2019-02-24T02:14:23.038Z,27.03
2019-02-24T02:16:50.234Z,33.00
2019-02-24T02:19:17.480Z,50.57
2019-02-24T02:21:44.715Z,53.17
2019-02-24T02:24:11.992Z,40.27
2019-02-24T02:26:39.235Z,26.37
2019-02-24T02:29:06.343Z,23.10
2019-02-24T02:31:33.588Z,21.67
2019-02-24T02:34:00.741Z,21.10
2019-02-24T02:36:28.014Z,21.30
2019-02-24T02:38:55.251Z,19.23
2019-02-24T02:41:22.356Z,21.87
2019-02-24T02:43:49.682Z,18.83
2019-02-24T02:46:16.857Z,20.03
2019-02-24T02:48:44.001Z,28.37
2019-02-24T02:51:11.170Z,22.83
2019-02-24T02:53:38.408Z,23.03
2019-02-24T02:56:05.569Z,20.97
2019-02-24T02:58:32.832Z,22.77
2019-02-24T03:00:59.987Z,21.60
2019-02-24T03:03:27.252Z,27.53
2019-02-24T03:05:56.165Z,22.47
2019-02-24T03:08:25.218Z,22.77
2019-02-24T03:10:52.457Z,23.50
2019-02-24T03:13:19.668Z,18.43
2019-02-24T03:15:47.132Z,23.90
2019-02-24T03:18:14.401Z,19.17
2019-02-24T03:20:41.625Z,23.57
2019-02-24T03:23:08.800Z,31.87
2019-02-24T03:25:36.051Z,25.47
2019-02-24T03:28:03.282Z,21.93
2019-02-24T03:30:30.548Z,22.53
2019-02-24T03:32:57.709Z,20.40
2019-02-24T03:35:24.966Z,24.43
2019-02-24T03:37:52.129Z,18.97
2019-02-24T03:40:19.363Z,22.73
2019-02-24T03:42:46.579Z,24.20
2019-02-24T03:45:13.709Z,33.30
2019-02-24T03:47:40.829Z,25.13
2019-02-24T03:50:07.968Z,19.90
2019-02-24T03:52:35.016Z,21.77
2019-02-24T03:55:03.325Z,24.93
2019-02-24T03:57:30.581Z,22.33
2019-02-24T03:59:57.912Z,22.87
2019-02-24T04:02:25.221Z,25.63
2019-02-24T04:04:52.372Z,23.67
2019-02-24T04:07:19.519Z,23.67
2019-02-24T04:09:46.816Z,22.43
2019-02-24T04:12:14.064Z,24.47
2019-02-24T04:14:41.112Z,22.23
2019-02-24T04:17:08.452Z,23.87
2019-02-24T04:19:35.701Z,21.37
2019-02-24T04:22:02.940Z,27.60
2019-02-24T04:24:30.247Z,22.57
2019-02-24T04:26:57.496Z,21.53
2019-02-24T04:29:25.374Z,24.13
2019-02-24T04:31:52.917Z,28.67
2019-02-24T04:34:20.160Z,26.27
2019-02-24T04:36:47.308Z,49.67
2019-02-24T04:39:14.584Z,31.20
2019-02-24T04:41:41.833Z,28.60
2019-02-24T04:44:09.148Z,28.37
2019-02-24T04:46:36.285Z,27.00
2019-02-24T04:49:03.529Z,31.47
2019-02-24T04:51:30.598Z,26.73
2019-02-24T04:53:57.800Z,33.17
2019-02-24T04:56:25.045Z,29.33
2019-02-24T04:58:52.329Z,30.57
2019-02-24T05:01:19.674Z,31.87
2019-02-24T05:03:46.881Z,32.53
2019-02-24T05:06:14.154Z,30.93
2019-02-24T05:08:41.357Z,30.03
2019-02-24T05:11:08.504Z,31.57
2019-02-24T05:13:35.643Z,26.83
2019-02-24T05:16:02.987Z,33.67
2019-02-24T05:18:30.498Z,49.73
2019-02-24T05:20:57.667Z,39.77
2019-02-24T05:23:24.919Z,59.93
2019-02-24T05:25:52.229Z,57.23
2019-02-24T05:28:19.294Z,48.77
2019-02-24T05:30:46.448Z,53.33
2019-02-24T05:33:13.647Z,43.57
2019-02-24T05:35:40.905Z,37.63
2019-02-24T05:38:08.106Z,37.20
2019-02-24T05:40:35.257Z,38.47
2019-02-24T05:43:02.505Z,40.03
2019-02-24T05:45:29.803Z,49.97
2019-02-24T05:47:57.056Z,45.77
2019-02-24T05:50:24.204Z,42.10
2019-02-24T05:52:51.284Z,35.43
2019-02-24T05:55:18.484Z,33.17
2019-02-24T05:57:45.629Z,50.30
2019-02-24T06:00:12.684Z,49.00
2019-02-24T06:02:39.856Z,43.80
2019-02-24T06:05:07.039Z,46.37
2019-02-24T06:07:34.287Z,48.83
2019-02-24T06:10:01.478Z,47.37
2019-02-24T06:12:28.724Z,47.70
2019-02-24T06:14:55.969Z,41.30
2019-02-24T06:17:23.167Z,47.93
2019-02-24T06:19:50.477Z,62.60
2019-02-24T06:22:17.715Z,67.43
2019-02-24T06:24:45.016Z,64.23
2019-02-24T06:27:12.270Z,55.33
2019-02-24T06:29:39.411Z,37.30
2019-02-24T06:32:06.734Z,40.53
2019-02-24T06:34:34.035Z,63.93
2019-02-24T06:37:01.377Z,37.07
2019-02-24T06:39:28.444Z,30.03
2019-02-24T06:41:55.786Z,48.27
2019-02-24T06:44:23.055Z,38.73
2019-02-24T06:46:50.410Z,31.33
2019-02-24T06:49:17.660Z,25.97
2019-02-24T06:51:44.921Z,21.97
2019-02-24T06:54:12.191Z,26.43
2019-02-24T06:56:39.385Z,29.93
2019-02-24T06:59:06.641Z,23.10
2019-02-24T07:01:33.963Z,28.50
2019-02-24T07:04:01.245Z,26.50
2019-02-24T07:06:28.484Z,26.63
2019-02-24T07:08:55.531Z,24.87
2019-02-24T07:11:22.682Z,27.10
2019-02-24T07:13:49.971Z,27.33
2019-02-24T07:16:17.260Z,32.93
2019-02-24T07:18:44.599Z,44.40
2019-02-24T07:21:11.863Z,35.73
2019-02-24T07:23:39.220Z,36.70
2019-02-24T07:26:06.497Z,43.10
2019-02-24T07:28:33.768Z,49.90
2019-02-24T07:31:01.060Z,41.70
2019-02-24T07:33:28.428Z,50.43
2019-02-24T07:35:55.725Z,40.57
2019-02-24T07:38:23.023Z,39.97
2019-02-24T07:40:50.296Z,37.27
2019-02-24T07:43:17.643Z,39.47
2019-02-24T07:45:44.900Z,40.23
2019-02-24T07:48:12.152Z,35.77
2019-02-24T07:50:39.437Z,51.43
2019-02-24T07:53:06.804Z,45.37
2019-02-24T07:55:35.977Z,29.80
2019-02-24T07:58:04.381Z,51.87
2019-02-24T08:00:34.985Z,53.67
2019-02-24T08:03:03.763Z,68.70
2019-02-24T08:05:31.077Z,99.63
2019-02-24T08:07:58.257Z,39.80
2019-02-24T08:10:25.503Z,44.60
2019-02-24T08:12:52.777Z,23.37
2019-02-24T08:15:20.048Z,27.30
2019-02-24T08:17:47.302Z,47.30
2019-02-24T08:20:14.603Z,27.80
2019-02-24T08:22:41.849Z,27.83
2019-02-24T08:25:09.120Z,24.57
2019-02-24T08:27:36.379Z,25.30
2019-02-24T08:30:07.239Z,28.07
2019-02-24T08:32:34.488Z,26.67
2019-02-24T08:35:01.823Z,27.40
2019-02-24T08:37:29.068Z,26.67
2019-02-24T08:39:56.364Z,26.53
2019-02-24T08:42:23.783Z,23.17
2019-02-24T08:44:51.076Z,24.30
2019-02-24T08:47:18.460Z,24.00
2019-02-24T08:49:45.803Z,24.97
2019-02-24T08:52:13.078Z,25.47
2019-02-24T08:54:40.371Z,24.47
2019-02-24T08:57:07.647Z,26.80
2019-02-24T08:59:35.609Z,35.60
2019-02-24T09:02:02.927Z,30.03
2019-02-24T09:04:30.299Z,31.40
2019-02-24T09:06:57.634Z,37.50
2019-02-24T09:09:24.895Z,35.60
2019-02-24T09:11:52.215Z,41.33
2019-02-24T09:14:21.399Z,39.90
2019-02-24T09:16:48.662Z,33.23
2019-02-24T09:19:15.928Z,39.03
2019-02-24T09:21:43.285Z,32.47
2019-02-24T09:24:10.579Z,29.37
2019-02-24T09:26:37.937Z,31.03
2019-02-24T09:29:05.220Z,39.03
2019-02-24T09:31:32.527Z,23.63
2019-02-24T09:34:00.788Z,20.77
2019-02-24T09:36:28.167Z,20.50
2019-02-24T09:38:55.552Z,17.97
2019-02-24T09:41:22.883Z,29.93
2019-02-24T09:43:50.197Z,20.47
2019-02-24T09:46:17.468Z,23.00
2019-02-24T09:48:44.806Z,26.10
2019-02-24T09:51:12.088Z,21.17
2019-02-24T09:53:39.521Z,23.07
2019-02-24T09:56:06.836Z,26.03
2019-02-24T09:58:34.088Z,27.30
2019-02-24T10:01:09.949Z,24.92
2019-02-24T10:03:30.469Z,33.38
2019-02-24T10:05:57.755Z,29.45
2019-02-24T10:08:25.029Z,65.42
2019-02-24T10:10:52.375Z,31.87
2019-02-24T10:13:19.607Z,32.93
2019-02-24T10:15:46.868Z,25.08
2019-02-24T10:18:14.201Z,26.35
2019-02-24T10:20:41.548Z,22.40
2019-02-24T10:23:08.919Z,21.40
2019-02-24T10:25:36.198Z,25.50
2019-02-24T10:28:03.451Z,21.27
2019-02-24T10:30:30.741Z,23.02
2019-02-24T10:32:58.031Z,29.10
2019-02-24T10:35:25.297Z,43.38
2019-02-24T10:37:52.581Z,25.12
2019-02-24T10:40:19.864Z,29.52
2019-02-24T10:42:47.107Z,47.53
2019-02-24T10:45:15.497Z,23.95
2019-02-24T10:47:42.743Z,24.10
2019-02-24T10:50:14.095Z,31.93
2019-02-24T10:52:41.363Z,24.18
2019-02-24T10:55:08.743Z,33.83
2019-02-24T10:57:36.050Z,31.85
2019-02-24T11:00:12.412Z,36.00
2019-02-24T11:02:39.838Z,48.23
2019-02-24T11:05:07.508Z,30.80
2019-02-24T11:07:34.814Z,27.95
2019-02-24T11:10:03.874Z,31.93
2019-02-24T11:12:31.168Z,29.57
2019-02-24T11:14:58.572Z,28.30
2019-02-24T11:17:25.839Z,30.77
2019-02-24T11:19:53.192Z,39.18
2019-02-24T11:22:20.461Z,29.07
2019-02-24T11:24:47.780Z,30.97
2019-02-24T11:27:15.144Z,36.30
2019-02-24T11:29:42.492Z,36.68
2019-02-24T11:32:09.863Z,27.13
2019-02-24T11:34:37.228Z,28.42
2019-02-24T11:37:04.605Z,22.13
2019-02-24T11:39:31.987Z,22.27
2019-02-24T11:41:59.341Z,22.70
2019-02-24T11:44:26.711Z,20.85
2019-02-24T11:46:54.043Z,26.62
2019-02-24T11:49:21.310Z,17.50
2019-02-24T11:51:48.656Z,19.75
2019-02-24T11:54:16.306Z,22.32
2019-02-24T11:56:43.619Z,25.62
2019-02-24T11:59:10.881Z,24.10
2019-02-24T12:01:47.101Z,22.00
2019-02-24T12:04:07.341Z,21.42
2019-02-24T12:06:34.660Z,19.00
2019-02-24T12:09:05.285Z,21.48
2019-02-24T12:11:31.070Z,23.80
2019-02-24T12:13:58.348Z,18.60
2019-02-24T12:16:25.831Z,22.52
2019-02-24T12:18:53.293Z,16.87
2019-02-24T12:21:20.591Z,19.05
2019-02-24T12:23:47.935Z,18.82
2019-02-24T12:26:15.215Z,16.07
2019-02-24T12:28:42.572Z,23.73
2019-02-24T12:31:10.913Z,15.00
2019-02-24T12:33:38.209Z,12.47
2019-02-24T12:36:05.789Z,11.97
2019-02-24T12:38:33.044Z,9.73
2019-02-24T12:41:01.892Z,10.65
2019-02-24T12:43:30.989Z,16.85
2019-02-24T12:45:58.180Z,11.43
2019-02-24T12:48:26.862Z,20.40
2019-02-24T12:50:54.114Z,40.63
2019-02-24T12:53:21.421Z,20.72
2019-02-24T12:55:48.792Z,14.00
2019-02-24T12:58:16.156Z,16.48
2019-02-24T13:00:43.431Z,10.93
2019-02-24T13:03:10.680Z,10.90
2019-02-24T13:05:38.005Z,11.05
2019-02-24T13:08:05.293Z,21.48
2019-02-24T13:10:32.589Z,49.45
2019-02-24T13:13:00.003Z,10.45
2019-02-24T13:15:27.316Z,14.10
2019-02-24T13:17:54.630Z,11.78
2019-02-24T13:20:21.910Z,9.63
2019-02-24T13:22:49.339Z,10.65
2019-02-24T13:25:18.254Z,15.80
2019-02-24T13:27:47.391Z,11.43
2019-02-24T13:30:17.748Z,16.02
2019-02-24T13:32:47.603Z,18.70
2019-02-24T13:35:14.962Z,12.03
2019-02-24T13:37:42.741Z,12.45
2019-02-24T13:40:11.904Z,19.02
2019-02-24T13:42:39.257Z,14.25
2019-02-24T13:45:16.139Z,14.60
2019-02-24T13:47:43.711Z,21.68
2019-02-24T13:50:11.063Z,11.05
2019-02-24T13:52:38.321Z,14.28
2019-02-24T13:55:12.771Z,10.30
2019-02-24T13:57:40.035Z,17.48
2019-02-24T14:00:13.567Z,16.80
2019-02-24T14:02:40.841Z,12.05
2019-02-24T14:05:08.209Z,14.00
2019-02-24T14:07:35.480Z,10.98
2019-02-24T14:10:04.769Z,9.60
2019-02-24T14:12:32.068Z,11.95
2019-02-24T14:15:01.512Z,10.93
2019-02-24T14:17:28.845Z,13.65
2019-02-24T14:19:56.140Z,15.45
2019-02-24T14:22:23.463Z,18.40
2019-02-24T14:24:50.743Z,16.37
2019-02-24T14:27:18.136Z,14.85
2019-02-24T14:29:45.404Z,10.60
2019-02-24T14:32:12.800Z,11.33
2019-02-24T14:34:40.342Z,14.13
2019-02-24T14:37:07.690Z,12.73
2019-02-24T14:39:35.026Z,12.82
2019-02-24T14:42:04.122Z,14.38
2019-02-24T14:44:31.475Z,13.72
2019-02-24T14:46:58.837Z,19.60
2019-02-24T14:49:26.148Z,17.80
2019-02-24T14:51:53.456Z,15.93
2019-02-24T14:54:20.733Z,16.00
2019-02-24T14:56:48.137Z,19.00
2019-02-24T14:59:15.468Z,16.27
2019-02-24T15:01:42.856Z,11.85
2019-02-24T15:04:10.151Z,15.28
2019-02-24T15:06:37.981Z,15.45
2019-02-24T15:09:06.198Z,17.50
2019-02-24T15:11:33.468Z,11.63
2019-02-24T15:14:00.768Z,14.58
2019-02-24T15:16:28.050Z,20.55
2019-02-24T15:18:56.313Z,14.30
2019-02-24T15:21:23.602Z,15.93
2019-02-24T15:23:50.919Z,10.15
2019-02-24T15:26:18.339Z,12.03
2019-02-24T15:28:45.809Z,18.67
2019-02-24T15:31:13.122Z,14.10
2019-02-24T15:33:40.446Z,14.03
2019-02-24T15:36:07.831Z,14.18
2019-02-24T15:38:35.167Z,15.73
2019-02-24T15:41:02.472Z,13.17
2019-02-24T15:43:29.731Z,19.70
2019-02-24T15:45:57.197Z,16.30
2019-02-24T15:48:24.439Z,24.43
2019-02-24T15:50:51.768Z,18.20
2019-02-24T15:53:19.031Z,17.87
2019-02-24T15:55:46.313Z,36.67
2019-02-24T15:58:13.623Z,18.63
2019-02-24T16:00:40.932Z,19.87
2019-02-24T16:03:08.237Z,19.10
2019-02-24T16:05:35.536Z,25.40
2019-02-24T16:08:02.821Z,43.70
2019-02-24T16:10:30.123Z,34.40
2019-02-24T16:12:57.412Z,23.37
2019-02-24T16:15:25.656Z,25.47
2019-02-24T16:17:52.908Z,29.03
2019-02-24T16:20:36.243Z,22.33
2019-02-24T16:23:03.553Z,22.37
2019-02-24T16:25:30.917Z,21.53
2019-02-24T16:27:58.116Z,24.63
2019-02-24T16:30:25.368Z,24.10
2019-02-24T16:32:52.673Z,21.97
2019-02-24T16:35:19.938Z,17.13
2019-02-24T16:37:47.202Z,19.20
2019-02-24T16:40:22.174Z,23.37
2019-02-24T16:42:49.417Z,16.90
2019-02-24T16:45:16.660Z,15.83
2019-02-24T16:47:43.983Z,21.17
2019-02-24T16:50:15.645Z,30.93
2019-02-24T16:52:42.976Z,38.53
2019-02-24T16:55:12.039Z,31.93
2019-02-24T16:57:39.344Z,35.53
2019-02-24T17:00:10.156Z,43.03
2019-02-24T17:02:37.478Z,44.80
2019-02-24T17:05:05.750Z,31.33
2019-02-24T17:07:33.157Z,26.97
2019-02-24T17:10:00.416Z,26.70
2019-02-24T17:12:27.744Z,38.97
2019-02-24T17:14:55.123Z,22.97
2019-02-24T17:17:22.465Z,25.27
2019-02-24T17:19:49.741Z,22.00
2019-02-24T17:22:17.009Z,22.93
2019-02-24T17:24:44.322Z,28.07
2019-02-24T17:27:11.575Z,25.70
2019-02-24T17:29:38.981Z,22.30
2019-02-24T17:32:07.967Z,25.57
2019-02-24T17:34:35.412Z,32.53
2019-02-24T17:37:02.773Z,26.77
2019-02-24T17:39:31.311Z,17.03
2019-02-24T17:41:58.944Z,19.17
2019-02-24T17:44:26.295Z,20.57
2019-02-24T17:46:53.562Z,21.80
2019-02-24T17:49:20.876Z,17.33
2019-02-24T17:51:48.344Z,23.20
2019-02-24T17:54:15.641Z,20.07
2019-02-24T17:56:42.956Z,20.97
2019-02-24T17:59:10.252Z,19.30
2019-02-24T18:01:37.591Z,16.53
2019-02-24T18:04:04.831Z,19.20
2019-02-24T18:06:32.085Z,17.60
2019-02-24T18:08:59.356Z,19.80
2019-02-24T18:11:26.693Z,19.57
2019-02-24T18:13:53.970Z,18.20
2019-02-24T18:16:21.336Z,21.13
2019-02-24T18:18:48.619Z,20.30
2019-02-24T18:21:15.873Z,16.87
2019-02-24T18:23:43.223Z,27.50
2019-02-24T18:26:10.474Z,27.60
2019-02-24T18:28:37.720Z,18.57
2019-02-24T18:31:05.033Z,20.47
2019-02-24T18:33:36.986Z,19.70
2019-02-24T18:36:04.599Z,23.20
2019-02-24T18:38:31.843Z,21.73
2019-02-24T18:40:59.151Z,25.43
2019-02-24T18:43:27.449Z,22.17
2019-02-24T18:45:55.902Z,24.60
2019-02-24T18:48:23.182Z,24.67
2019-02-24T18:50:50.467Z,22.33
2019-02-24T18:53:17.808Z,23.70
2019-02-24T18:55:45.156Z,23.33
2019-02-24T18:58:12.522Z,21.83
2019-02-24T19:00:39.791Z,19.70
2019-02-24T19:03:07.120Z,22.47
2019-02-24T19:05:34.420Z,19.60
2019-02-24T19:08:01.680Z,17.33
2019-02-24T19:10:28.939Z,22.00
2019-02-24T19:12:56.283Z,21.43
2019-02-24T19:15:24.014Z,23.90
2019-02-24T19:17:51.301Z,25.97
2019-02-24T19:20:20.818Z,21.27
2019-02-24T19:22:48.066Z,22.53
2019-02-24T19:25:15.411Z,22.97
2019-02-24T19:27:42.687Z,28.90
2019-02-24T19:30:13.571Z,26.47
2019-02-24T19:32:40.843Z,28.17
2019-02-24T19:35:10.129Z,25.70
2019-02-24T19:37:37.291Z,26.47
2019-02-24T19:40:09.948Z,27.17
2019-02-24T19:42:37.243Z,33.80
2019-02-24T19:45:07.425Z,26.73
2019-02-24T19:47:34.701Z,24.87
2019-02-24T19:50:01.962Z,28.20
2019-02-24T19:52:29.240Z,26.63
2019-02-24T19:54:56.475Z,26.73
2019-02-24T19:57:23.743Z,28.10
2019-02-24T19:59:51.015Z,30.73
2019-02-24T20:02:18.344Z,27.63
2019-02-24T20:04:45.628Z,20.33
2019-02-24T20:07:12.894Z,26.53
2019-02-24T20:09:40.212Z,21.33
2019-02-24T20:12:07.522Z,21.57
2019-02-24T20:14:34.812Z,16.23
2019-02-24T20:17:02.084Z,20.33
2019-02-24T20:19:29.329Z,23.43
2019-02-24T20:21:56.625Z,23.37
2019-02-24T20:24:23.877Z,25.20
2019-02-24T20:26:51.148Z,31.37
2019-02-24T20:29:18.440Z,34.40
2019-02-24T20:31:45.800Z,29.90
2019-02-24T20:34:13.070Z,30.10
2019-02-24T20:36:40.427Z,30.63
2019-02-24T20:39:07.724Z,30.30
2019-02-24T20:41:36.082Z,32.00
2019-02-24T20:44:03.756Z,31.40
2019-02-24T20:46:31.069Z,30.23
2019-02-24T20:48:58.360Z,32.73
2019-02-24T20:51:25.709Z,31.07
2019-02-24T20:53:53.077Z,28.77
2019-02-24T20:56:20.376Z,36.27
2019-02-24T20:58:47.988Z,32.37
2019-02-24T21:01:15.371Z,37.17
2019-02-24T21:03:42.886Z,35.90
2019-02-24T21:06:10.221Z,42.10
2019-02-24T21:08:37.489Z,35.77
2019-02-24T21:11:04.796Z,37.80
2019-02-24T21:13:32.119Z,41.13
2019-02-24T21:15:59.415Z,39.93
2019-02-24T21:18:26.664Z,43.23
2019-02-24T21:20:53.983Z,39.83
2019-02-24T21:23:21.257Z,39.80
2019-02-24T21:25:48.544Z,39.83
2019-02-24T21:28:15.822Z,42.03
2019-02-24T21:30:43.093Z,43.37
2019-02-24T21:33:10.389Z,40.10
2019-02-24T21:35:37.720Z,44.33
2019-02-24T21:38:05.339Z,36.83
2019-02-24T21:40:32.724Z,44.87
2019-02-24T21:42:59.991Z,48.10
2019-02-24T21:45:27.851Z,49.63
2019-02-24T21:47:55.133Z,60.13
2019-02-24T21:50:22.376Z,49.97
2019-02-24T21:52:49.685Z,54.57
2019-02-24T21:55:17.160Z,51.20
2019-02-24T21:57:44.400Z,51.67
2019-02-24T22:00:21.264Z,51.87
2019-02-24T22:02:48.508Z,53.37
2019-02-24T22:05:15.761Z,52.73
2019-02-24T22:07:43.033Z,49.97
2019-02-24T22:10:11.581Z,50.63
2019-02-24T22:12:38.893Z,52.90
2019-02-24T22:15:15.584Z,51.63
2019-02-24T22:17:42.886Z,54.83
2019-02-24T22:20:10.236Z,55.03
2019-02-24T22:22:37.475Z,54.20
2019-02-24T22:25:06.703Z,57.33
2019-02-24T22:27:33.965Z,50.97
2019-02-24T22:30:01.233Z,55.37
2019-02-24T22:32:28.575Z,51.83
2019-02-24T22:34:55.845Z,60.70
2019-02-24T22:37:23.092Z,55.83
2019-02-24T22:39:50.373Z,60.67
2019-02-24T22:42:17.644Z,58.63
2019-02-24T22:44:44.958Z,58.73
2019-02-24T22:47:12.205Z,58.07
2019-02-24T22:49:39.453Z,55.33
2019-02-24T22:52:06.752Z,65.20
2019-02-24T22:54:34.007Z,61.20
2019-02-24T22:57:01.251Z,63.77
2019-02-24T22:59:28.556Z,59.33
2019-02-24T23:01:55.811Z,63.47
2019-02-24T23:04:23.144Z,60.80
2019-02-24T23:06:50.383Z,58.70
2019-02-24T23:09:18.348Z,63.90
2019-02-24T23:11:45.622Z,67.17
2019-02-24T23:14:12.873Z,61.67
2019-02-24T23:16:40.153Z,73.43
2019-02-24T23:19:07.404Z,65.20
2019-02-24T23:21:34.674Z,64.87
2019-02-24T23:24:01.912Z,63.10
2019-02-24T23:26:29.190Z,68.77
2019-02-24T23:28:56.445Z,67.80
2019-02-24T23:31:23.727Z,62.37
2019-02-24T23:33:50.976Z,74.67
2019-02-24T23:36:18.296Z,63.83
2019-02-24T23:38:45.544Z,79.37
2019-02-24T23:41:12.790Z,70.80
2019-02-24T23:43:40.068Z,67.40
2019-02-24T23:46:07.324Z,73.10
2019-02-24T23:48:34.623Z,74.10
2019-02-24T23:51:01.868Z,76.30
2019-02-24T23:53:29.117Z,68.07
2019-02-24T23:55:56.444Z,65.63
2019-02-24T23:58:23.739Z,69.27
